createdAt,value
2023-02-15T00:00:02.646Z,0.09
2023-02-15T00:02:29.275Z,0.04
2023-02-15T00:04:57.274Z,0.07
2023-02-15T00:07:24.414Z,0.13
2023-02-15T00:09:51.029Z,0.19
2023-02-15T00:12:20.169Z,0.15
2023-02-15T00:14:46.800Z,0.26
2023-02-15T00:17:13.442Z,0.33
2023-02-15T00:19:41.106Z,0.25
2023-02-15T00:22:13.904Z,0.18
2023-02-15T00:24:40.611Z,0.21
2023-02-15T00:27:07.295Z,0.25
2023-02-15T00:29:34.177Z,0.17
2023-02-15T00:32:00.908Z,0.19
2023-02-15T00:34:28.663Z,0.16
2023-02-15T00:36:55.422Z,0.16
2023-02-15T00:39:22.363Z,0.20
2023-02-15T00:41:49.027Z,0.23
2023-02-15T00:44:16.197Z,0.26
2023-02-15T00:46:43.006Z,0.30
2023-02-15T00:49:13.818Z,0.24
2023-02-15T00:51:40.623Z,0.22
2023-02-15T00:54:07.611Z,0.27
2023-02-15T00:56:34.388Z,0.34
2023-02-15T00:59:01.030Z,0.25
2023-02-15T01:01:27.815Z,0.22
2023-02-15T01:03:54.548Z,0.26
2023-02-15T01:06:21.346Z,0.23
2023-02-15T01:08:48.339Z,0.24
2023-02-15T01:11:23.005Z,0.25
2023-02-15T01:13:55.257Z,0.26
2023-02-15T01:16:22.566Z,0.30
2023-02-15T01:18:49.471Z,0.30
2023-02-15T01:21:18.094Z,0.45
2023-02-15T01:23:44.925Z,0.36
2023-02-15T01:26:11.552Z,0.35
2023-02-15T01:28:38.834Z,0.50
2023-02-15T01:31:13.954Z,0.25
2023-02-15T01:33:40.802Z,0.19
2023-02-15T01:36:07.563Z,0.01
2023-02-15T01:38:35.598Z,-0.08
2023-02-15T01:41:21.024Z,-0.16
2023-02-15T01:43:50.056Z,-0.26
2023-02-15T01:46:19.092Z,-0.32
2023-02-15T01:48:48.860Z,-0.42
2023-02-15T01:51:19.973Z,-0.47
2023-02-15T01:53:55.326Z,-0.55
2023-02-15T01:56:24.989Z,-0.59
2023-02-15T01:58:54.526Z,-0.68
2023-02-15T02:01:21.393Z,-0.61
2023-02-15T02:04:12.108Z,-0.71
2023-02-15T02:06:40.047Z,-0.76
2023-02-15T02:09:07.118Z,-0.75
2023-02-15T02:11:34.365Z,-0.73
2023-02-15T02:14:01.069Z,-0.78
2023-02-15T02:16:52.545Z,-0.78
2023-02-15T02:19:40.699Z,-0.78
2023-02-15T02:22:22.312Z,-0.84
2023-02-15T02:25:10.428Z,-0.70
2023-02-15T02:28:05.924Z,-0.76
2023-02-15T02:30:57.943Z,-0.74
2023-02-15T02:33:34.708Z,-0.41
2023-02-15T02:36:18.595Z,-0.31
2023-02-15T02:38:59.750Z,-0.42
2023-02-15T02:41:44.498Z,-0.50
2023-02-15T02:44:18.426Z,-0.31
2023-02-15T02:46:53.742Z,-0.41
2023-02-15T02:49:37.810Z,-0.48
2023-02-15T02:52:07.932Z,-0.63
2023-02-15T02:54:36.556Z,-0.73
2023-02-15T02:57:05.620Z,-0.79
2023-02-15T02:59:35.062Z,-0.95
2023-02-15T03:02:33.177Z,-1.13
2023-02-15T03:05:04.641Z,-1.16
2023-02-15T03:07:32.793Z,-1.12
2023-02-15T03:10:01.767Z,-1.19
2023-02-15T03:12:30.958Z,-1.30
2023-02-15T03:15:05.281Z,-1.35
2023-02-15T03:17:32.982Z,-1.43
2023-02-15T03:20:04.305Z,-1.52
2023-02-15T03:22:41.764Z,-1.54
2023-02-15T03:25:12.418Z,-1.56
2023-02-15T03:27:42.303Z,-1.65
2023-02-15T03:30:10.164Z,-1.65
2023-02-15T03:32:37.555Z,-1.65
2023-02-15T03:35:04.529Z,-1.67
2023-02-15T03:37:44.864Z,-1.67
2023-02-15T03:40:36.153Z,-1.72
2023-02-15T03:43:18.282Z,-1.75
2023-02-15T03:45:55.521Z,-1.72
2023-02-15T03:48:25.882Z,-1.71
2023-02-15T03:51:14.149Z,-1.79
2023-02-15T03:53:41.292Z,-1.84
2023-02-15T03:56:07.876Z,-1.76
2023-02-15T03:58:53.181Z,-1.80
2023-02-15T04:01:57.070Z,-1.89
2023-02-15T04:04:27.258Z,-1.90
2023-02-15T04:06:53.885Z,-2.04
2023-02-15T04:09:39.124Z,-2.05
2023-02-15T04:12:07.452Z,-2.06
2023-02-15T04:14:52.908Z,-2.10
2023-02-15T04:17:19.496Z,-2.05
2023-02-15T04:20:04.746Z,-1.97
2023-02-15T04:22:49.834Z,-1.91
2023-02-15T04:25:16.480Z,-2.13
2023-02-15T04:27:51.295Z,-2.10
2023-02-15T04:30:19.496Z,-2.05
2023-02-15T04:32:46.378Z,-2.17
2023-02-15T04:35:13.718Z,-2.24
2023-02-15T04:37:41.350Z,-2.36
2023-02-15T04:40:10.406Z,-2.35
2023-02-15T04:42:37.171Z,-2.37
2023-02-15T04:45:04.201Z,-2.31
2023-02-15T04:47:31.293Z,-2.33
2023-02-15T04:49:58.253Z,-2.41
2023-02-15T04:52:25.728Z,-2.40
2023-02-15T04:54:52.414Z,-2.35
2023-02-15T04:57:19.071Z,-2.38
2023-02-15T04:59:45.712Z,-2.39
2023-02-15T05:02:15.375Z,-2.49
2023-02-15T05:04:42.023Z,-2.53
2023-02-15T05:07:08.728Z,-2.48
2023-02-15T05:09:35.410Z,-2.53
2023-02-15T05:12:02.114Z,-2.57
2023-02-15T05:14:28.832Z,-2.62
2023-02-15T05:16:55.528Z,-2.63
2023-02-15T05:19:24.181Z,-2.59
2023-02-15T05:21:50.789Z,-2.53
2023-02-15T05:24:36.160Z,-2.58
2023-02-15T05:27:21.479Z,-2.53
2023-02-15T05:29:48.137Z,-2.47
2023-02-15T05:32:15.300Z,-2.38
2023-02-15T05:34:42.125Z,-2.31
2023-02-15T05:37:09.363Z,-2.37
2023-02-15T05:39:35.977Z,-2.27
2023-02-15T05:42:03.393Z,-2.32
2023-02-15T05:44:30.436Z,-2.30
2023-02-15T05:46:57.017Z,-2.35
2023-02-15T05:49:23.731Z,-2.36
2023-02-15T05:51:50.357Z,-2.35
2023-02-15T05:54:17.334Z,-2.19
2023-02-15T05:56:43.969Z,-2.26
2023-02-15T05:59:10.744Z,-2.20
2023-02-15T06:01:37.361Z,-2.16
2023-02-15T06:04:06.170Z,-2.10
2023-02-15T06:06:32.777Z,-2.20
2023-02-15T06:08:59.403Z,-2.08
2023-02-15T06:11:26.031Z,-2.07
2023-02-15T06:13:53.007Z,-2.09
2023-02-15T06:16:19.776Z,-1.94
2023-02-15T06:18:46.473Z,-2.04
2023-02-15T06:21:13.224Z,-2.05
2023-02-15T06:23:39.873Z,-1.94
2023-02-15T06:26:06.503Z,-1.87
2023-02-15T06:28:33.804Z,-1.86
2023-02-15T06:31:00.489Z,-1.95
2023-02-15T06:33:27.223Z,-2.05
2023-02-15T06:35:53.886Z,-1.86
2023-02-15T06:38:21.423Z,-1.94
2023-02-15T06:40:50.740Z,-2.02
2023-02-15T06:43:17.368Z,-2.00
2023-02-15T06:45:44.072Z,-1.93
2023-02-15T06:48:13.530Z,-1.73
2023-02-15T06:50:40.662Z,-1.79
2023-02-15T06:53:07.386Z,-1.73
2023-02-15T06:55:35.202Z,-1.80
2023-02-15T06:58:05.033Z,-1.73
2023-02-15T07:00:31.669Z,-1.74
2023-02-15T07:02:59.688Z,-1.67
2023-02-15T07:05:32.058Z,-1.65
2023-02-15T07:07:59.742Z,-1.49
2023-02-15T07:10:27.327Z,-1.58
2023-02-15T07:12:54.506Z,-1.44
2023-02-15T07:15:21.970Z,-1.31
2023-02-15T07:17:49.557Z,-1.38
2023-02-15T07:20:19.574Z,-1.29
2023-02-15T07:22:46.361Z,-1.34
2023-02-15T07:25:14.016Z,-1.31
2023-02-15T07:27:41.205Z,-1.34
2023-02-15T07:30:10.316Z,-1.33
2023-02-15T07:32:37.069Z,-1.18
2023-02-15T07:35:03.755Z,-1.11
2023-02-15T07:37:30.394Z,-1.06
2023-02-15T07:39:57.127Z,-0.99
2023-02-15T07:42:24.059Z,-0.97
2023-02-15T07:44:51.036Z,-1.02
2023-02-15T07:47:17.700Z,-0.90
2023-02-15T07:49:44.554Z,-0.80
2023-02-15T07:52:11.329Z,-0.70
2023-02-15T07:54:37.991Z,-0.69
2023-02-15T07:57:05.383Z,-0.66
2023-02-15T07:59:32.312Z,-0.71
2023-02-15T08:01:58.969Z,-0.54
2023-02-15T08:04:25.629Z,-0.51
2023-02-15T08:06:55.921Z,-0.59
2023-02-15T08:09:22.932Z,-0.57
2023-02-15T08:11:50.157Z,-0.41
2023-02-15T08:14:21.369Z,-0.43
2023-02-15T08:16:50.310Z,-0.43
2023-02-15T08:19:25.592Z,-0.36
2023-02-15T08:21:54.608Z,-0.47
2023-02-15T08:24:23.282Z,-0.33
2023-02-15T08:26:50.988Z,-0.25
2023-02-15T08:29:19.867Z,-0.18
2023-02-15T08:31:46.943Z,-0.21
2023-02-15T08:34:17.158Z,-0.18
2023-02-15T08:36:46.069Z,-0.18
2023-02-15T08:39:14.498Z,-0.09
2023-02-15T08:41:43.946Z,0.03
2023-02-15T08:44:11.694Z,0.11
2023-02-15T08:46:40.471Z,0.20
2023-02-15T08:49:07.147Z,0.40
2023-02-15T08:51:36.201Z,0.10
2023-02-15T08:54:08.200Z,0.18
2023-02-15T08:56:37.053Z,0.16
2023-02-15T08:59:04.553Z,0.01
2023-02-15T09:01:33.256Z,0.05
2023-02-15T09:04:02.491Z,0.15
2023-02-15T09:06:29.656Z,0.21
2023-02-15T09:08:57.193Z,0.42
2023-02-15T09:11:31.831Z,0.48
2023-02-15T09:14:14.593Z,0.74
2023-02-15T09:16:43.092Z,0.84
2023-02-15T09:19:09.911Z,0.73
2023-02-15T09:21:38.998Z,0.58
2023-02-15T09:24:13.374Z,0.60
2023-02-15T09:26:42.148Z,0.31
2023-02-15T09:29:09.820Z,0.62
2023-02-15T09:31:42.518Z,0.88
2023-02-15T09:34:09.435Z,0.88
2023-02-15T09:36:38.487Z,0.84
2023-02-15T09:39:17.024Z,0.70
2023-02-15T09:42:02.547Z,0.80
2023-02-15T09:44:44.531Z,0.68
2023-02-15T09:47:23.329Z,0.77
2023-02-15T09:50:03.437Z,0.95
2023-02-15T09:53:01.266Z,1.01
2023-02-15T09:55:40.264Z,1.17
2023-02-15T09:58:28.781Z,1.20
2023-02-15T10:01:14.461Z,1.29
2023-02-15T10:03:59.773Z,1.20
2023-02-15T10:06:57.897Z,1.39
2023-02-15T10:09:43.679Z,1.57
2023-02-15T10:12:32.711Z,1.74
2023-02-15T10:15:14.842Z,1.79
2023-02-15T10:18:04.990Z,1.81
2023-02-15T10:20:41.330Z,1.83
2023-02-15T10:23:28.203Z,1.81
2023-02-15T10:26:06.215Z,1.81
2023-02-15T10:28:47.628Z,1.94
2023-02-15T10:31:25.805Z,1.88
2023-02-15T10:34:04.244Z,1.85
2023-02-15T10:36:41.604Z,1.88
2023-02-15T10:39:10.838Z,1.92
2023-02-15T10:42:05.308Z,1.92
2023-02-15T10:44:44.315Z,2.07
2023-02-15T10:47:29.010Z,2.21
2023-02-15T10:50:17.902Z,2.10
2023-02-15T10:53:15.705Z,2.21
2023-02-15T10:56:08.093Z,2.19
2023-02-15T10:58:53.203Z,2.23
2023-02-15T11:01:43.118Z,2.19
2023-02-15T11:04:45.415Z,2.25
2023-02-15T11:07:22.930Z,2.32
2023-02-15T11:09:58.218Z,2.38
2023-02-15T11:12:26.104Z,2.41
2023-02-15T11:15:17.572Z,2.41
2023-02-15T11:17:48.274Z,2.42
2023-02-15T11:20:24.380Z,2.53
2023-02-15T11:23:19.641Z,2.30
2023-02-15T11:25:53.787Z,2.36
2023-02-15T11:28:24.724Z,2.52
2023-02-15T11:30:55.863Z,2.62
2023-02-15T11:33:27.579Z,2.64
2023-02-15T11:35:59.592Z,2.72
2023-02-15T11:38:30.084Z,2.69
2023-02-15T11:41:01.099Z,2.72
2023-02-15T11:43:43.066Z,2.73
2023-02-15T11:46:12.957Z,2.87
2023-02-15T11:48:40.159Z,2.79
2023-02-15T11:51:10.045Z,2.96
2023-02-15T11:53:38.786Z,2.90
2023-02-15T11:56:07.193Z,2.96
2023-02-15T11:58:38.753Z,3.02
2023-02-15T12:01:33.582Z,3.09
2023-02-15T12:04:22.799Z,3.17
2023-02-15T12:06:54.561Z,3.28
2023-02-15T12:09:42.247Z,3.27
2023-02-15T12:12:27.382Z,3.26
2023-02-15T12:14:56.457Z,3.31
2023-02-15T12:17:26.077Z,3.25
2023-02-15T12:19:54.338Z,3.30
2023-02-15T12:22:26.859Z,3.28
2023-02-15T12:25:00.554Z,3.36
2023-02-15T12:27:34.468Z,3.42
2023-02-15T12:30:22.602Z,3.48
2023-02-15T12:32:52.938Z,3.52
2023-02-15T12:35:29.025Z,3.66
2023-02-15T12:37:58.342Z,3.74
2023-02-15T12:40:31.330Z,3.82
2023-02-15T12:42:58.756Z,3.77
2023-02-15T12:45:33.832Z,3.87
2023-02-15T12:48:17.318Z,3.78
2023-02-15T12:50:55.042Z,3.84
2023-02-15T12:53:24.567Z,3.89
2023-02-15T12:56:08.578Z,3.99
2023-02-15T12:58:39.949Z,4.29
2023-02-15T13:01:09.676Z,4.24
2023-02-15T13:03:36.994Z,4.34
2023-02-15T13:06:08.288Z,4.33
2023-02-15T13:08:39.315Z,4.39
2023-02-15T13:11:11.058Z,4.37
2023-02-15T13:13:56.007Z,4.29
2023-02-15T13:16:31.608Z,4.31
2023-02-15T13:18:58.785Z,4.27
2023-02-15T13:21:28.112Z,4.39
2023-02-15T13:24:02.604Z,4.55
2023-02-15T13:26:32.968Z,4.39
2023-02-15T13:29:30.042Z,4.48
2023-02-15T13:31:59.129Z,4.55
2023-02-15T13:34:37.517Z,4.42
2023-02-15T13:37:11.573Z,4.32
2023-02-15T13:39:46.133Z,4.36
2023-02-15T13:42:24.315Z,4.45
2023-02-15T13:45:24.395Z,4.68
2023-02-15T13:48:02.283Z,4.70
2023-02-15T13:50:35.662Z,4.67
2023-02-15T13:53:08.221Z,4.69
2023-02-15T13:55:39.929Z,4.70
2023-02-15T13:58:24.908Z,4.88
2023-02-15T14:00:59.593Z,5.13
2023-02-15T14:03:39.140Z,4.94
2023-02-15T14:06:38.164Z,4.90
2023-02-15T14:09:35.755Z,4.98
2023-02-15T14:12:27.355Z,4.92
2023-02-15T14:15:01.434Z,5.19
2023-02-15T14:17:47.238Z,5.15
2023-02-15T14:20:32.017Z,5.36
2023-02-15T14:23:12.117Z,5.13
2023-02-15T14:25:49.473Z,5.00
2023-02-15T14:28:27.548Z,4.95
2023-02-15T14:30:54.474Z,4.88
2023-02-15T14:33:38.800Z,4.87
2023-02-15T14:36:08.174Z,4.78
2023-02-15T14:39:41.929Z,4.73
2023-02-15T14:42:19.347Z,4.73
2023-02-15T14:45:13.877Z,4.47
2023-02-15T14:47:44.736Z,4.53
2023-02-15T14:50:38.303Z,4.66
2023-02-15T14:53:32.067Z,4.62
2023-02-15T14:56:19.156Z,4.70
2023-02-15T14:58:53.198Z,4.59
2023-02-15T15:02:09.299Z,4.50
2023-02-15T15:04:38.820Z,4.65
2023-02-15T15:07:13.103Z,4.87
2023-02-15T15:09:41.736Z,4.67
2023-02-15T15:12:23.583Z,4.58
2023-02-15T15:14:52.895Z,4.64
2023-02-15T15:17:39.218Z,4.63
2023-02-15T15:20:19.253Z,4.50
2023-02-15T15:22:45.931Z,4.45
2023-02-15T15:25:42.041Z,4.41
2023-02-15T15:28:08.883Z,4.37
2023-02-15T15:30:35.547Z,4.31
2023-02-15T15:33:30.721Z,4.24
2023-02-15T15:36:27.150Z,4.26
2023-02-15T15:38:59.881Z,4.10
2023-02-15T15:41:54.461Z,4.00
2023-02-15T15:45:12.069Z,3.93
2023-02-15T15:47:38.703Z,3.77
2023-02-15T15:50:14.153Z,3.76
2023-02-15T15:52:45.447Z,3.64
2023-02-15T15:55:18.352Z,3.52
2023-02-15T15:57:49.359Z,3.47
2023-02-15T16:00:32.210Z,3.37
2023-02-15T16:02:58.940Z,3.17
2023-02-15T16:05:25.981Z,3.17
2023-02-15T16:07:52.643Z,2.96
2023-02-15T16:10:27.786Z,2.80
2023-02-15T16:12:55.767Z,2.70
2023-02-15T16:15:32.075Z,2.70
2023-02-15T16:17:59.794Z,2.73
2023-02-15T16:20:33.016Z,2.67
2023-02-15T16:23:13.730Z,2.49
2023-02-15T16:26:03.991Z,2.15
2023-02-15T16:28:30.923Z,2.07
2023-02-15T16:31:08.588Z,1.97
2023-02-15T16:33:38.449Z,1.88
2023-02-15T16:36:08.805Z,1.82
2023-02-15T16:38:41.470Z,1.65
2023-02-15T16:41:08.461Z,1.58
2023-02-15T16:43:35.177Z,1.64
2023-02-15T16:46:06.524Z,1.53
2023-02-15T16:48:34.716Z,1.34
2023-02-15T16:51:01.931Z,1.48
2023-02-15T16:53:29.788Z,1.33
2023-02-15T16:55:58.518Z,1.17
2023-02-15T16:58:39.333Z,1.02
2023-02-15T17:01:08.821Z,0.98
2023-02-15T17:03:36.758Z,0.88
2023-02-15T17:06:04.499Z,0.91
2023-02-15T17:08:38.048Z,0.90
2023-02-15T17:11:19.253Z,0.90
2023-02-15T17:14:05.076Z,0.71
2023-02-15T17:16:34.300Z,0.70
2023-02-15T17:19:03.229Z,0.63
2023-02-15T17:21:33.877Z,0.37
2023-02-15T17:24:02.305Z,0.37
2023-02-15T17:26:32.055Z,0.30
2023-02-15T17:29:12.358Z,0.22
2023-02-15T17:31:39.260Z,0.02
2023-02-15T17:34:06.137Z,0.03
2023-02-15T17:36:32.962Z,-0.05
2023-02-15T17:38:59.626Z,-0.04
2023-02-15T17:41:28.253Z,0.14
2023-02-15T17:43:54.905Z,0.02
2023-02-15T17:46:24.894Z,-0.25
2023-02-15T17:48:53.179Z,-0.25
2023-02-15T17:51:20.729Z,-0.34
2023-02-15T17:54:07.117Z,-0.39
2023-02-15T17:56:34.710Z,-0.44
2023-02-15T17:59:01.452Z,-0.52
2023-02-15T18:01:46.795Z,-0.42
2023-02-15T18:04:33.645Z,-0.43
2023-02-15T18:07:18.916Z,-0.71
2023-02-15T18:10:04.218Z,-0.70
2023-02-15T18:12:36.698Z,-0.73
2023-02-15T18:15:03.768Z,-0.71
2023-02-15T18:17:34.616Z,-0.86
2023-02-15T18:20:05.591Z,-0.87
2023-02-15T18:22:32.929Z,-0.95
2023-02-15T18:24:59.674Z,-1.01
2023-02-15T18:27:26.278Z,-1.01
2023-02-15T18:29:52.890Z,-1.04
2023-02-15T18:32:29.427Z,-1.07
2023-02-15T18:34:57.680Z,-1.14
2023-02-15T18:37:25.536Z,-1.16
2023-02-15T18:39:54.266Z,-1.08
2023-02-15T18:42:26.988Z,-1.17
2023-02-15T18:44:58.634Z,-1.19
2023-02-15T18:47:25.512Z,-0.98
2023-02-15T18:49:52.277Z,-1.10
2023-02-15T18:52:24.352Z,-1.18
2023-02-15T18:54:55.137Z,-1.23
2023-02-15T18:57:21.873Z,-1.22
2023-02-15T18:59:48.510Z,-1.16
2023-02-15T19:02:17.714Z,-1.26
2023-02-15T19:04:45.231Z,-1.21
2023-02-15T19:07:29.879Z,-1.03
2023-02-15T19:09:56.866Z,-1.19
2023-02-15T19:12:23.745Z,-1.11
2023-02-15T19:14:52.942Z,-1.36
2023-02-15T19:17:21.533Z,-1.52
2023-02-15T19:19:48.259Z,-1.26
2023-02-15T19:22:30.376Z,-1.34
2023-02-15T19:25:00.311Z,-1.40
2023-02-15T19:27:34.910Z,-1.39
2023-02-15T19:30:03.682Z,-1.39
2023-02-15T19:32:31.165Z,-1.32
2023-02-15T19:34:57.826Z,-1.32
2023-02-15T19:37:35.101Z,-1.25
2023-02-15T19:40:02.030Z,-1.26
2023-02-15T19:42:28.870Z,-1.23
2023-02-15T19:44:55.531Z,-1.21
2023-02-15T19:47:22.177Z,-1.22
2023-02-15T19:49:48.827Z,-1.21
2023-02-15T19:52:21.043Z,-1.21
2023-02-15T19:54:48.397Z,-1.21
2023-02-15T19:57:15.004Z,-1.23
2023-02-15T19:59:42.142Z,-1.22
2023-02-15T20:02:18.081Z,-1.22
2023-02-15T20:04:44.871Z,-1.10
2023-02-15T20:07:28.469Z,-1.06
2023-02-15T20:09:55.421Z,-0.98
2023-02-15T20:12:26.267Z,-1.05
2023-02-15T20:14:53.137Z,-1.08
2023-02-15T20:17:19.977Z,-1.21
2023-02-15T20:19:46.758Z,-1.00
2023-02-15T20:22:24.300Z,-1.11
2023-02-15T20:24:51.770Z,-1.15
2023-02-15T20:27:18.939Z,-1.27
2023-02-15T20:29:45.559Z,-1.34
2023-02-15T20:32:12.622Z,-1.33
2023-02-15T20:34:39.420Z,-1.22
2023-02-15T20:37:06.232Z,-1.20
2023-02-15T20:39:35.108Z,-1.35
2023-02-15T20:42:02.106Z,-1.38
2023-02-15T20:44:31.267Z,-1.39
2023-02-15T20:47:00.375Z,-1.36
2023-02-15T20:49:27.860Z,-1.38
2023-02-15T20:51:56.297Z,-1.40
2023-02-15T20:54:24.517Z,-1.43
2023-02-15T20:56:56.845Z,-1.43
2023-02-15T20:59:32.008Z,-1.49
2023-02-15T21:02:02.154Z,-1.51
2023-02-15T21:04:32.808Z,-1.55
2023-02-15T21:07:00.718Z,-1.56
2023-02-15T21:09:28.507Z,-1.56
2023-02-15T21:11:59.184Z,-1.54
2023-02-15T21:14:27.143Z,-1.65
2023-02-15T21:16:54.187Z,-1.73
2023-02-15T21:19:22.597Z,-1.54
2023-02-15T21:21:51.484Z,-1.43
2023-02-15T21:24:28.763Z,-1.63
2023-02-15T21:27:01.244Z,-1.70
2023-02-15T21:29:30.391Z,-1.71
2023-02-15T21:32:01.397Z,-1.70
2023-02-15T21:34:29.787Z,-1.68
2023-02-15T21:36:56.485Z,-1.66
2023-02-15T21:39:30.653Z,-1.73
2023-02-15T21:42:22.241Z,-1.79
2023-02-15T21:45:09.709Z,-1.82
2023-02-15T21:47:51.677Z,-1.85
2023-02-15T21:50:40.292Z,-1.89
2023-02-15T21:53:13.154Z,-1.89
2023-02-15T21:55:39.822Z,-1.93
2023-02-15T21:58:06.710Z,-1.94
2023-02-15T22:00:35.002Z,-2.00
2023-02-15T22:03:05.132Z,-1.81
2023-02-15T22:05:33.905Z,-1.91
2023-02-15T22:08:00.914Z,-2.03
2023-02-15T22:10:32.736Z,-1.99
2023-02-15T22:13:03.592Z,-2.04
2023-02-15T22:15:37.062Z,-2.11
2023-02-15T22:18:05.199Z,-2.20
2023-02-15T22:20:32.178Z,-2.23
2023-02-15T22:22:59.090Z,-2.22
2023-02-15T22:25:27.060Z,-2.24
2023-02-15T22:27:54.354Z,-2.31
2023-02-15T22:30:24.008Z,-2.35
2023-02-15T22:32:50.664Z,-2.38
2023-02-15T22:35:21.254Z,-2.35
2023-02-15T22:37:48.127Z,-2.36
2023-02-15T22:40:16.372Z,-2.40
2023-02-15T22:42:47.042Z,-2.42
2023-02-15T22:45:19.279Z,-2.49
2023-02-15T22:47:50.858Z,-2.52
2023-02-15T22:50:22.801Z,-2.60
2023-02-15T22:52:50.038Z,-2.56
2023-02-15T22:55:22.213Z,-2.56
2023-02-15T22:57:51.652Z,-2.58
2023-02-15T23:00:26.826Z,-2.66
2023-02-15T23:02:54.733Z,-2.71
2023-02-15T23:05:24.569Z,-2.73
2023-02-15T23:07:51.420Z,-2.72
2023-02-15T23:10:22.587Z,-2.71
2023-02-15T23:13:12.218Z,-2.72
2023-02-15T23:15:39.839Z,-2.66
2023-02-15T23:18:19.280Z,-2.64
2023-02-15T23:20:49.456Z,-2.63
2023-02-15T23:23:16.463Z,-2.52
2023-02-15T23:25:43.420Z,-2.52
2023-02-15T23:28:22.829Z,-2.57
2023-02-15T23:30:49.577Z,-2.56
2023-02-15T23:33:16.436Z,-2.55
2023-02-15T23:35:43.096Z,-2.48
2023-02-15T23:38:18.957Z,-2.41
2023-02-15T23:41:11.253Z,-2.39
2023-02-15T23:43:40.974Z,-2.42
2023-02-15T23:46:08.396Z,-2.40
2023-02-15T23:48:37.783Z,-2.34
2023-02-15T23:51:06.364Z,-2.28
2023-02-15T23:53:33.209Z,-2.31
2023-02-15T23:56:00.002Z,-2.28
2023-02-15T23:58:38.136Z,-2.25
